createdAt,value
2023-04-02T00:02:29.337Z,1.76
2023-04-02T00:05:29.458Z,1.73
2023-04-02T00:08:29.689Z,1.76
2023-04-02T00:11:33.195Z,1.67
2023-04-02T00:14:21.465Z,1.62
2023-04-02T00:20:56.363Z,1.62
2023-04-02T00:23:26.894Z,1.57
2023-04-02T00:26:17.053Z,1.66
2023-04-02T00:29:19.348Z,1.47
2023-04-02T00:32:17.730Z,1.49
2023-04-02T00:34:51.079Z,1.51
2023-04-02T00:37:31.201Z,1.45
2023-04-02T00:43:20.351Z,1.48
2023-04-02T00:45:55.979Z,1.52
2023-04-02T00:49:00.684Z,1.54
2023-04-02T00:51:39.885Z,1.57
2023-04-02T00:54:49.168Z,1.58
2023-04-02T00:57:35.836Z,1.49
2023-04-02T01:00:59.095Z,1.53
2023-04-02T01:06:41.314Z,1.48
2023-04-02T01:13:22.788Z,1.47
2023-04-02T01:16:09.023Z,1.48
2023-04-02T01:19:38.626Z,1.40
2023-04-02T01:22:32.477Z,1.37
2023-04-02T01:24:59.474Z,1.42
2023-04-02T01:27:39.945Z,1.36
2023-04-02T01:30:12.102Z,1.40
2023-04-02T01:32:39.701Z,1.30
2023-04-02T01:35:10.570Z,1.37
2023-04-02T01:38:13.888Z,1.34
2023-04-02T01:41:07.326Z,1.35
2023-04-02T01:44:03.856Z,1.32
2023-04-02T01:46:39.890Z,1.30
2023-04-02T01:49:17.642Z,1.28
2023-04-02T01:51:50.989Z,1.28
2023-04-02T01:54:20.672Z,1.27
2023-04-02T01:59:58.940Z,1.20
2023-04-02T02:02:33.093Z,1.20
2023-04-02T02:04:59.991Z,1.12
2023-04-02T02:07:28.311Z,1.18
2023-04-02T02:10:01.090Z,1.23
2023-04-02T02:12:27.856Z,1.13
2023-04-02T02:15:01.404Z,1.15
2023-04-02T02:17:58.340Z,1.19
2023-04-02T02:20:27.571Z,1.29
2023-04-02T02:23:12.910Z,1.31
2023-04-02T02:25:47.712Z,1.13
2023-04-02T02:28:27.714Z,1.04
2023-04-02T02:31:01.530Z,1.04
2023-04-02T02:33:36.704Z,1.07
2023-04-02T02:36:11.049Z,1.05
2023-04-02T02:39:04.147Z,1.08
2023-04-02T02:41:44.317Z,1.00
2023-04-02T02:44:18.906Z,1.00
2023-04-02T02:47:38.388Z,0.89
2023-04-02T02:53:46.959Z,0.96
2023-04-02T02:56:32.648Z,0.91
2023-04-02T02:59:13.438Z,0.88
2023-04-02T03:01:46.412Z,0.93
2023-04-02T03:04:14.190Z,0.88
2023-04-02T03:06:42.285Z,0.90
2023-04-02T03:09:52.831Z,0.82
2023-04-02T03:12:38.940Z,0.85
2023-04-02T03:15:13.810Z,0.84
2023-04-02T03:17:52.051Z,0.75
2023-04-02T03:20:18.789Z,0.73
2023-04-02T03:23:19.980Z,0.71
2023-04-02T03:26:10.580Z,0.71
2023-04-02T03:28:41.855Z,0.65
2023-04-02T03:31:11.588Z,0.58
2023-04-02T03:33:48.270Z,0.61
2023-04-02T03:36:28.647Z,0.58
2023-04-02T03:39:10.203Z,0.51
2023-04-02T03:41:59.214Z,0.54
2023-04-02T03:44:46.236Z,0.55
2023-04-02T03:47:23.699Z,0.55
2023-04-02T03:50:15.775Z,0.53
2023-04-02T03:52:42.925Z,0.60
2023-04-02T03:55:29.444Z,0.55
2023-04-02T03:58:20.773Z,0.58
2023-04-02T04:01:09.920Z,0.57
2023-04-02T04:03:37.808Z,0.59
2023-04-02T04:06:25.283Z,0.56
2023-04-02T04:08:59.406Z,0.55
2023-04-02T04:11:30.942Z,0.59
2023-04-02T04:14:21.959Z,0.63
2023-04-02T04:16:56.185Z,0.58
2023-04-02T04:19:34.912Z,0.58
2023-04-02T04:22:17.852Z,0.57
2023-04-02T04:24:47.695Z,0.63
2023-04-02T04:27:34.901Z,0.65
2023-04-02T04:30:18.378Z,0.62
2023-04-02T04:33:16.268Z,0.59
2023-04-02T04:35:49.776Z,0.52
2023-04-02T04:38:39.263Z,0.57
2023-04-02T04:41:22.707Z,0.55
2023-04-02T04:44:01.842Z,0.51
2023-04-02T04:46:32.799Z,0.53
2023-04-02T04:49:05.514Z,0.52
2023-04-02T04:51:41.441Z,0.51
2023-04-02T04:54:16.464Z,0.57
2023-04-02T04:57:00.343Z,0.55
2023-04-02T04:59:32.360Z,0.55
2023-04-02T05:02:15.091Z,0.56
2023-04-02T05:04:55.442Z,0.54
2023-04-02T05:07:28.981Z,0.60
2023-04-02T05:10:23.323Z,0.60
2023-04-02T05:13:12.746Z,0.54
2023-04-02T05:15:53.310Z,0.53
2023-04-02T05:18:43.826Z,0.65
2023-04-02T05:21:24.255Z,0.55
2023-04-02T05:24:02.674Z,0.61
2023-04-02T05:26:48.434Z,0.61
2023-04-02T05:29:37.626Z,0.53
2023-04-02T05:32:16.204Z,0.59
2023-04-02T05:34:48.698Z,0.58
2023-04-02T05:37:19.287Z,0.63
2023-04-02T05:39:51.264Z,0.63
2023-04-02T05:42:22.945Z,0.61
2023-04-02T05:45:21.079Z,0.64
2023-04-02T05:47:50.366Z,0.73
2023-04-02T05:50:23.379Z,0.68
2023-04-02T05:52:56.987Z,0.72
2023-04-02T05:55:34.749Z,0.71
2023-04-02T05:58:34.497Z,0.66
2023-04-02T06:01:15.518Z,0.72
2023-04-02T06:03:50.729Z,0.80
2023-04-02T06:06:33.709Z,0.80
2023-04-02T06:09:06.222Z,0.85
2023-04-02T06:11:42.155Z,0.91
2023-04-02T06:14:12.395Z,0.83
2023-04-02T06:16:40.210Z,0.83
2023-04-02T06:19:15.849Z,0.84
2023-04-02T06:21:49.801Z,0.92
2023-04-02T06:24:23.220Z,0.90
2023-04-02T06:27:02.614Z,0.99
2023-04-02T06:29:40.432Z,1.03
2023-04-02T06:32:14.240Z,0.95
2023-04-02T06:34:44.109Z,0.97
2023-04-02T06:37:36.533Z,0.99
2023-04-02T06:40:31.833Z,1.01
2023-04-02T06:43:07.188Z,0.99
2023-04-02T06:45:56.782Z,0.98
2023-04-02T06:48:31.684Z,0.98
2023-04-02T06:51:07.546Z,1.12
2023-04-02T06:53:47.322Z,0.98
2023-04-02T06:56:45.025Z,0.98
2023-04-02T06:59:16.117Z,0.92
2023-04-02T07:01:51.148Z,0.98
2023-04-02T07:04:19.390Z,0.96
2023-04-02T07:06:47.934Z,1.05
2023-04-02T07:09:16.008Z,1.21
2023-04-02T07:11:47.258Z,1.20
2023-04-02T07:14:14.312Z,1.22
2023-04-02T07:16:43.067Z,1.22
2023-04-02T07:19:19.557Z,1.12
2023-04-02T07:21:48.075Z,1.15
2023-04-02T07:24:15.579Z,1.21
2023-04-02T07:26:42.726Z,1.26
2023-04-02T07:29:14.935Z,1.28
2023-04-02T07:31:46.508Z,1.32
2023-04-02T07:34:13.634Z,1.35
2023-04-02T07:36:40.449Z,1.39
2023-04-02T07:39:07.509Z,1.37
2023-04-02T07:41:34.184Z,1.56
2023-04-02T07:44:02.529Z,1.53
2023-04-02T07:46:29.329Z,1.69
2023-04-02T07:48:56.042Z,1.63
2023-04-02T07:51:24.777Z,1.64
2023-04-02T07:53:55.816Z,1.79
2023-04-02T07:56:26.132Z,1.94
2023-04-02T07:58:56.341Z,1.83
2023-04-02T08:01:35.393Z,1.86
2023-04-02T08:04:04.051Z,1.70
2023-04-02T08:06:30.962Z,1.81
2023-04-02T08:08:58.624Z,1.88
2023-04-02T08:11:28.745Z,1.91
2023-04-02T08:13:56.361Z,1.70
2023-04-02T08:16:25.287Z,1.86
2023-04-02T08:18:52.520Z,1.98
2023-04-02T08:21:23.017Z,2.00
2023-04-02T08:23:54.680Z,2.21
2023-04-02T08:26:23.330Z,2.30
2023-04-02T08:29:01.024Z,2.17
2023-04-02T08:31:27.779Z,2.30
2023-04-02T08:33:57.102Z,2.38
2023-04-02T08:36:33.193Z,2.29
2023-04-02T08:38:59.926Z,2.31
2023-04-02T08:41:34.947Z,2.31
2023-04-02T08:44:30.428Z,2.39
2023-04-02T08:47:03.413Z,2.45
2023-04-02T08:49:39.759Z,2.48
2023-04-02T08:52:08.821Z,2.59
2023-04-02T08:54:41.538Z,2.65
2023-04-02T08:57:25.049Z,2.74
2023-04-02T09:00:00.824Z,2.83
2023-04-02T09:02:32.844Z,2.77
2023-04-02T09:05:03.459Z,2.75
2023-04-02T09:07:33.049Z,2.75
2023-04-02T09:10:00.458Z,2.68
2023-04-02T09:12:30.423Z,2.68
2023-04-02T09:15:24.757Z,2.67
2023-04-02T09:18:04.051Z,2.74
2023-04-02T09:20:30.825Z,2.90
2023-04-02T09:22:57.864Z,2.83
2023-04-02T09:25:32.391Z,2.80
2023-04-02T09:28:02.658Z,2.89
2023-04-02T09:30:32.313Z,2.77
2023-04-02T09:33:06.709Z,3.04
2023-04-02T09:35:39.121Z,3.05
2023-04-02T09:38:21.655Z,3.16
2023-04-02T09:41:05.963Z,3.15
2023-04-02T09:43:38.114Z,3.17
2023-04-02T09:46:24.998Z,3.13
2023-04-02T09:48:58.298Z,3.26
2023-04-02T09:51:27.661Z,3.35
2023-04-02T09:54:03.732Z,3.42
2023-04-02T09:56:32.525Z,3.43
2023-04-02T09:59:06.600Z,3.28
2023-04-02T10:01:40.007Z,3.37
2023-04-02T10:04:48.270Z,3.29
2023-04-02T10:07:34.783Z,3.49
2023-04-02T10:10:25.100Z,3.65
2023-04-02T10:13:06.416Z,3.69
2023-04-02T10:16:27.969Z,3.47
2023-04-02T10:18:58.403Z,3.42
2023-04-02T10:21:28.705Z,3.78
2023-04-02T10:23:59.331Z,3.87
2023-04-02T10:26:41.481Z,3.90
2023-04-02T10:29:36.523Z,4.26
2023-04-02T10:32:17.917Z,3.88
2023-04-02T10:35:05.988Z,3.89
2023-04-02T10:38:16.176Z,3.69
2023-04-02T10:40:48.384Z,3.84
2023-04-02T10:43:30.907Z,3.90
2023-04-02T10:46:16.400Z,4.36
2023-04-02T10:49:06.304Z,4.05
2023-04-02T10:51:51.813Z,3.93
2023-04-02T10:54:39.604Z,4.04
2023-04-02T10:57:14.356Z,4.04
2023-04-02T10:59:52.515Z,4.03
2023-04-02T11:02:39.203Z,4.47
2023-04-02T11:05:23.980Z,4.27
2023-04-02T11:08:04.580Z,4.42
2023-04-02T11:10:35.680Z,4.44
2023-04-02T11:13:10.681Z,4.55
2023-04-02T11:15:38.116Z,4.41
2023-04-02T11:18:05.146Z,4.26
2023-04-02T11:20:59.203Z,4.20
2023-04-02T11:23:38.991Z,4.26
2023-04-02T11:26:27.854Z,4.79
2023-04-02T11:29:21.808Z,4.66
2023-04-02T11:31:50.362Z,4.54
2023-04-02T11:35:03.126Z,4.72
2023-04-02T11:37:45.279Z,4.69
2023-04-02T11:40:12.267Z,4.69
2023-04-02T11:42:40.975Z,4.77
2023-04-02T11:45:52.974Z,4.52
2023-04-02T11:48:23.387Z,4.56
2023-04-02T11:50:50.332Z,4.69
2023-04-02T11:53:17.265Z,4.99
2023-04-02T11:55:45.962Z,5.00
2023-04-02T11:58:40.903Z,5.33
2023-04-02T12:01:18.199Z,5.37
2023-04-02T12:04:00.160Z,5.35
2023-04-02T12:06:48.482Z,5.31
2023-04-02T12:09:27.566Z,5.11
2023-04-02T12:12:00.478Z,4.91
2023-04-02T12:14:37.433Z,4.72
2023-04-02T12:17:09.830Z,4.83
2023-04-02T12:19:38.236Z,4.92
2023-04-02T12:22:05.175Z,4.84
2023-04-02T12:24:32.165Z,5.03
2023-04-02T12:27:15.569Z,5.03
2023-04-02T12:29:43.497Z,5.09
2023-04-02T12:32:39.668Z,5.27
2023-04-02T12:35:10.313Z,4.89
2023-04-02T12:37:37.067Z,4.94
2023-04-02T12:40:16.909Z,5.08
2023-04-02T12:42:43.599Z,5.12
2023-04-02T12:45:29.594Z,5.47
2023-04-02T12:47:57.650Z,5.15
2023-04-02T12:50:25.050Z,5.32
2023-04-02T12:52:55.971Z,5.01
2023-04-02T12:55:26.930Z,5.01
2023-04-02T12:57:58.694Z,5.19
2023-04-02T13:00:34.299Z,5.34
2023-04-02T13:03:03.693Z,5.38
2023-04-02T13:05:45.042Z,5.25
2023-04-02T13:08:22.974Z,5.36
2023-04-02T13:10:58.332Z,5.34
2023-04-02T13:13:30.187Z,5.40
2023-04-02T13:16:15.402Z,5.46
2023-04-02T13:18:44.440Z,5.65
2023-04-02T13:21:19.297Z,6.01
2023-04-02T13:23:46.511Z,6.08
2023-04-02T13:26:24.349Z,6.22
2023-04-02T13:29:01.368Z,6.15
2023-04-02T13:31:32.052Z,5.93
2023-04-02T13:34:00.440Z,6.05
2023-04-02T13:36:29.293Z,6.21
2023-04-02T13:38:58.673Z,5.80
2023-04-02T13:41:30.415Z,6.00
2023-04-02T13:44:01.706Z,5.83
2023-04-02T13:46:31.104Z,5.69
2023-04-02T13:48:58.707Z,6.12
2023-04-02T13:51:34.766Z,6.19
2023-04-02T13:54:01.658Z,6.19
2023-04-02T13:56:28.646Z,6.38
2023-04-02T13:58:58.337Z,6.66
2023-04-02T14:01:25.776Z,6.62
2023-04-02T14:03:53.847Z,6.77
2023-04-02T14:07:07.698Z,7.35
2023-04-02T14:09:50.364Z,7.09
2023-04-02T14:12:41.958Z,7.08
2023-04-02T14:15:15.067Z,7.22
2023-04-02T14:17:48.300Z,6.84
2023-04-02T14:20:30.086Z,7.15
2023-04-02T14:23:39.674Z,7.23
2023-04-02T14:26:15.528Z,7.29
2023-04-02T14:28:54.512Z,7.47
2023-04-02T14:31:39.546Z,7.34
2023-04-02T14:34:09.669Z,7.30
2023-04-02T14:36:56.582Z,7.31
2023-04-02T14:39:35.924Z,7.30
2023-04-02T14:42:39.950Z,7.50
2023-04-02T14:45:23.794Z,7.08
2023-04-02T14:47:56.714Z,7.12
2023-04-02T14:50:28.158Z,6.95
2023-04-02T14:52:58.786Z,7.04
2023-04-02T14:55:38.099Z,7.51
2023-04-02T14:58:11.421Z,7.24
2023-04-02T15:00:49.240Z,7.19
2023-04-02T15:03:24.516Z,6.91
2023-04-02T15:06:04.379Z,6.86
2023-04-02T15:08:55.425Z,7.05
2023-04-02T15:11:39.780Z,7.22
2023-04-02T15:14:19.103Z,7.04
2023-04-02T15:16:46.095Z,7.31
2023-04-02T15:19:18.026Z,7.29
2023-04-02T15:21:59.525Z,7.46
2023-04-02T15:24:32.557Z,7.59
2023-04-02T15:27:24.451Z,7.18
2023-04-02T15:30:03.959Z,7.11
2023-04-02T15:32:34.157Z,7.08
2023-04-02T15:35:28.783Z,6.75
2023-04-02T15:38:24.187Z,6.53
2023-04-02T15:40:59.276Z,6.53
2023-04-02T15:43:29.112Z,6.96
2023-04-02T15:46:17.745Z,7.43
2023-04-02T15:49:25.635Z,7.62
2023-04-02T15:52:17.392Z,7.54
2023-04-02T15:55:04.280Z,7.51
2023-04-02T15:57:47.798Z,7.24
2023-04-02T16:00:22.859Z,7.09
2023-04-02T16:03:22.019Z,6.79
2023-04-02T16:06:27.948Z,6.61
2023-04-02T16:09:09.775Z,6.54
2023-04-02T16:11:37.127Z,6.63
2023-04-02T16:14:29.015Z,6.76
2023-04-02T16:17:03.831Z,6.84
2023-04-02T16:19:40.722Z,6.89
2023-04-02T16:22:34.471Z,6.87
2023-04-02T16:25:20.120Z,6.67
2023-04-02T16:27:56.786Z,6.41
2023-04-02T16:30:34.714Z,6.26
2023-04-02T16:33:17.729Z,6.24
2023-04-02T16:36:29.609Z,6.23
2023-04-02T16:39:23.672Z,6.14
2023-04-02T16:42:06.789Z,6.16
2023-04-02T16:44:43.569Z,6.06
2023-04-02T16:47:28.802Z,6.02
2023-04-02T16:50:13.652Z,6.04
2023-04-02T16:52:46.400Z,5.95
2023-04-02T16:55:13.734Z,5.80
2023-04-02T16:58:01.412Z,5.79
2023-04-02T17:01:06.080Z,5.89
2023-04-02T17:03:41.916Z,5.94
2023-04-02T17:06:29.951Z,6.06
2023-04-02T17:09:41.823Z,6.15
2023-04-02T17:12:12.474Z,6.23
2023-04-02T17:14:46.540Z,6.18
2023-04-02T17:17:15.711Z,6.08
2023-04-02T17:19:44.062Z,6.06
2023-04-02T17:22:17.471Z,6.02
2023-04-02T17:24:53.910Z,5.96
2023-04-02T17:27:26.963Z,5.85
2023-04-02T17:29:59.782Z,5.71
2023-04-02T17:32:29.992Z,5.65
2023-04-02T17:34:58.302Z,5.40
2023-04-02T17:37:45.885Z,5.33
2023-04-02T17:41:04.331Z,5.29
2023-04-02T17:43:38.293Z,5.20
2023-04-02T17:46:31.523Z,5.09
2023-04-02T17:49:33.412Z,4.96
2023-04-02T17:52:10.028Z,4.96
2023-04-02T17:55:18.850Z,5.05
2023-04-02T17:58:09.715Z,5.08
2023-04-02T18:01:07.914Z,5.02
2023-04-02T18:03:49.396Z,4.99
2023-04-02T18:06:27.175Z,5.16
2023-04-02T18:09:09.838Z,5.08
2023-04-02T18:11:51.297Z,5.03
2023-04-02T18:14:39.940Z,5.09
2023-04-02T18:17:16.314Z,5.04
2023-04-02T18:19:51.926Z,4.99
2023-04-02T18:22:26.611Z,4.99
2023-04-02T18:24:59.307Z,5.00
2023-04-02T18:28:24.197Z,5.05
2023-04-02T18:31:20.859Z,5.02
2023-04-02T18:34:05.974Z,5.08
2023-04-02T18:36:44.811Z,5.14
2023-04-02T18:39:56.589Z,5.20
2023-04-02T18:42:42.227Z,5.18
2023-04-02T18:45:30.945Z,5.19
2023-04-02T18:48:14.007Z,5.12
2023-04-02T18:50:46.090Z,5.18
2023-04-02T18:53:15.997Z,5.11
2023-04-02T18:55:49.809Z,5.13
2023-04-02T18:58:23.944Z,5.05
2023-04-02T19:00:51.409Z,5.03
2023-04-02T19:03:33.044Z,5.00
2023-04-02T19:06:08.371Z,5.06
2023-04-02T19:08:51.429Z,4.99
2023-04-02T19:11:29.805Z,4.89
2023-04-02T19:14:08.444Z,4.87
2023-04-02T19:16:47.119Z,4.94
2023-04-02T19:19:14.299Z,4.78
2023-04-02T19:22:20.029Z,4.78
2023-04-02T19:25:31.171Z,4.70
2023-04-02T19:28:24.774Z,4.62
2023-04-02T19:31:10.473Z,4.52
2023-04-02T19:33:46.864Z,4.46
2023-04-02T19:36:41.388Z,4.44
2023-04-02T19:39:48.887Z,4.38
2023-04-02T19:42:27.008Z,4.23
2023-04-02T19:44:54.241Z,4.15
2023-04-02T19:47:21.535Z,4.17
2023-04-02T19:49:48.483Z,4.10
2023-04-02T19:52:17.186Z,4.08
2023-04-02T19:54:49.243Z,3.96
2023-04-02T19:57:23.621Z,3.82
2023-04-02T19:59:50.365Z,3.78
2023-04-02T20:02:19.259Z,3.70
2023-04-02T20:04:53.532Z,3.60
2023-04-02T20:07:22.611Z,3.43
2023-04-02T20:09:49.522Z,3.37
2023-04-02T20:12:18.348Z,3.21
2023-04-02T20:14:45.475Z,3.10
2023-04-02T20:17:15.875Z,3.08
2023-04-02T20:19:45.865Z,3.09
2023-04-02T20:22:13.449Z,3.04
2023-04-02T20:24:42.558Z,2.94
2023-04-02T20:27:09.989Z,2.87
2023-04-02T20:29:37.728Z,2.74
2023-04-02T20:32:15.333Z,2.78
2023-04-02T20:34:42.910Z,2.67
2023-04-02T20:37:12.598Z,2.60
2023-04-02T20:39:52.760Z,2.64
2023-04-02T20:42:25.666Z,2.51
2023-04-02T20:44:52.535Z,2.38
2023-04-02T20:47:22.115Z,2.40
2023-04-02T20:50:07.351Z,2.33
2023-04-02T20:52:34.323Z,2.29
2023-04-02T20:55:02.102Z,2.19
2023-04-02T20:57:30.528Z,1.99
2023-04-02T20:59:59.067Z,1.95
2023-04-02T21:02:25.799Z,1.96
2023-04-02T21:04:52.474Z,1.91
2023-04-02T21:07:19.100Z,1.79
2023-04-02T21:09:45.692Z,1.72
2023-04-02T21:12:12.491Z,1.67
2023-04-02T21:14:40.133Z,1.69
2023-04-02T21:17:07.825Z,1.68
2023-04-02T21:19:35.404Z,1.58
2023-04-02T21:22:02.542Z,1.48
2023-04-02T21:24:29.289Z,1.40
2023-04-02T21:26:55.960Z,1.40
2023-04-02T21:29:22.710Z,1.35
2023-04-02T21:31:50.492Z,1.40
2023-04-02T21:34:22.365Z,1.28
2023-04-02T21:36:50.531Z,1.22
2023-04-02T21:39:20.648Z,1.20
2023-04-02T21:41:57.928Z,1.18
2023-04-02T21:44:24.698Z,1.18
2023-04-02T21:46:53.889Z,1.18
2023-04-02T21:49:25.502Z,1.08
2023-04-02T21:51:52.577Z,1.03
2023-04-02T21:54:19.617Z,1.02
2023-04-02T21:56:47.141Z,0.88
2023-04-02T21:59:16.279Z,0.89
2023-04-02T22:01:48.691Z,0.90
2023-04-02T22:04:25.984Z,0.83
2023-04-02T22:06:53.476Z,0.78
2023-04-02T22:09:23.038Z,0.71
2023-04-02T22:11:55.256Z,0.71
2023-04-02T22:14:22.315Z,0.70
2023-04-02T22:16:49.152Z,0.70
2023-04-02T22:19:16.935Z,0.58
2023-04-02T22:21:44.137Z,0.53
2023-04-02T22:24:16.110Z,0.49
2023-04-02T22:26:42.880Z,0.46
2023-04-02T22:29:09.763Z,0.45
2023-04-02T22:31:37.000Z,0.45
2023-04-02T22:34:05.603Z,0.41
2023-04-02T22:36:32.959Z,0.37
2023-04-02T22:39:00.172Z,0.40
2023-04-02T22:41:28.581Z,0.31
2023-04-02T22:43:56.475Z,0.33
2023-04-02T22:46:24.201Z,0.29
2023-04-02T22:48:50.886Z,0.29
2023-04-02T22:51:19.397Z,0.25
2023-04-02T22:53:46.608Z,0.17
2023-04-02T22:56:16.083Z,0.20
2023-04-02T22:58:43.355Z,0.11
2023-04-02T23:01:14.358Z,-0.05
2023-04-02T23:03:41.599Z,-0.07
2023-04-02T23:06:11.302Z,-0.12
2023-04-02T23:08:40.830Z,0.06
2023-04-02T23:11:20.640Z,0.05
2023-04-02T23:13:48.625Z,0.01
2023-04-02T23:16:15.898Z,-0.01
2023-04-02T23:18:43.340Z,0.00
2023-04-02T23:21:10.186Z,-0.05
2023-04-02T23:23:37.379Z,-0.16
2023-04-02T23:26:04.487Z,-0.22
2023-04-02T23:28:31.246Z,-0.31
2023-04-02T23:30:57.980Z,-0.38
2023-04-02T23:33:24.748Z,-0.49
2023-04-02T23:35:51.397Z,-0.58
2023-04-02T23:38:18.037Z,-0.62
2023-04-02T23:40:45.754Z,-0.61
2023-04-02T23:43:12.454Z,-0.61
2023-04-02T23:45:39.183Z,-0.78
2023-04-02T23:48:06.168Z,-0.86
2023-04-02T23:50:32.842Z,-0.72
2023-04-02T23:52:59.476Z,-0.80
2023-04-02T23:55:26.202Z,-0.91
2023-04-02T23:57:52.830Z,-0.95
